Currently 62°F in Anza, California, USA
62°F
80°F / 44°F
5 mph N
0.00"
Saturday, May 2, 2026 8:45 PM PDT

Anza, California Weather Summary
Last 36 Hours

Temperature Winds Hourly Humidity Dewpoint
Time Report Norm Report Norm Max Gusts Precip. Rpt. Norm Rpt. Norm Pressure
1Sat 08:45 PM  62.2°F  55°F  5 mph N  6 mph  7 mph  0.00"  35%  68%  33°F  44°F  29.90"
Sat 08:00 PM  63.4°F  57°F  4 mph N  6 mph  13 mph  0.00"  35%  64%  34°F  45°F  29.89"
Sat 07:00 PM  69.9°F  62°F  8 mph NW  8 mph  none  0.00"  30%  55%  36°F  45°F  29.88"
Sat 06:00 PM  75.2°F  66°F  12 mph NW  9 mph  none  0.00"  28%  48%  39°F  45°F  29.86"
Sat 05:00 PM  80.2°F  69°F  7 mph S  10 mph  12 mph  0.00"  13%  43%  22°F  45°F  29.86"
2Sat 04:04 PM  80.4°F  70°F  7 mph SE  10 mph  15 mph  ----  13%  40%  22°F  44°F  29.87"
Sat 04:00 PM  80.2°F  70°F  9 mph SE  10 mph  18 mph  0.00"  12%  40%  22°F  44°F  29.87"
Sat 03:00 PM  79.6°F  71°F  10 mph S  10 mph  18 mph  0.00"  13%  38%  21°F  44°F  29.91"
Sat 02:00 PM  79.9°F  71°F  7 mph SE  9 mph  18 mph  0.00"  13%  37%  23°F  43°F  29.93"
Sat 01:00 PM  79.3°F  71°F  8 mph S  9 mph  19 mph  0.00"  14%  36%  24°F  42°F  29.95"
Sat 12:00 PM  77.8°F  70°F  11 mph S  9 mph  19 mph  0.00"  15%  36%  25°F  41°F  29.97"
Sat 11:00 AM  77.6°F  68°F  10 mph S  8 mph  17 mph  0.00"  14%  39%  23°F  42°F  29.99"
Sat 10:00 AM  75.7°F  66°F  10 mph SE  8 mph  16 mph  0.00"  15%  42%  22°F  42°F  29.99"
Sat 09:00 AM  74.1°F  63°F  9 mph S  7 mph  13 mph  0.00"  15%  49%  21°F  43°F  29.99"
Sat 08:00 AM  69.4°F  58°F  calm  6 mph  none  0.00"  32%  59%  37°F  43°F  29.99"
Sat 07:00 AM  54.4°F  52°F  calm  5 mph  3 mph  0.00"  56%  70%  39°F  42°F  29.98"
Sat 06:00 AM  43.6°F  49°F  calm  5 mph  none  0.00"  72%  72%  35°F  40°F  29.96"
3Sat 05:59 AM  43.5°F  49°F  calm  5 mph  none  ----  72%  72%  35°F  40°F  29.96"
Sat 05:00 AM  46.5°F  49°F  calm  5 mph  7 mph  0.00"  66%  73%  35°F  40°F  29.95"
Sat 04:00 AM  52.1°F  49°F  calm  5 mph  8 mph  0.00"  54%  74%  35°F  40°F  29.94"
Sat 03:00 AM  52.0°F  49°F  calm  5 mph  7 mph  0.00"  57%  74%  36°F  41°F  29.93"
Sat 02:00 AM  52.7°F  50°F  4 mph NE  5 mph  7 mph  0.00"  56%  75%  37°F  41°F  29.94"
Sat 01:00 AM  53.3°F  50°F  5 mph W  5 mph  7 mph  0.00"  62%  75%  40°F  42°F  29.96"
Sat 12:00 AM  56.2°F  51°F  5 mph SW  5 mph  7 mph  0.00"  73%  75%  47°F  42°F  29.96"
Fri 11:00 PM  55.3°F  51°F  4 mph S  5 mph  7 mph  0.00"  75%  75%  47°F  43°F  29.96"
Fri 10:00 PM  58.3°F  52°F  5 mph NE  6 mph  8 mph  0.00"  70%  73%  48°F  44°F  29.96"
Fri 09:00 PM  59.5°F  54°F  4 mph NE  6 mph  9 mph  0.00"  74%  69%  51°F  44°F  29.94"
Fri 08:00 PM  64.1°F  57°F  6 mph NW  6 mph  14 mph  0.00"  63%  64%  51°F  45°F  29.92"
Fri 07:00 PM  69.4°F  62°F  12 mph NW  8 mph  19 mph  0.00"  55%  55%  52°F  45°F  29.90"
Fri 06:00 PM  74.3°F  66°F  12 mph NW  10 mph  22 mph  0.00"  41%  48%  48°F  45°F  29.89"
Fri 05:00 PM  77.9°F  69°F  12 mph NW  10 mph  24 mph  0.00"  26%  43%  39°F  45°F  29.89"
Fri 04:00 PM  78.8°F  70°F  15 mph NW  10 mph  23 mph  0.00"  26%  40%  40°F  44°F  29.90"
Fri 03:00 PM  80.0°F  71°F  12 mph NW  10 mph  22 mph  0.00"  23%  38%  38°F  43°F  29.92"
Fri 02:00 PM  80.5°F  71°F  12 mph NW  10 mph  22 mph  0.00"  20%  37%  35°F  43°F  29.93"
Fri 01:00 PM  80.3°F  71°F  12 mph W  9 mph  24 mph  0.00"  20%  36%  34°F  42°F  29.93"
Fri 12:00 PM  79.1°F  70°F  7 mph NE  9 mph  20 mph  0.00"  22%  37%  36°F  41°F  29.95"
Fri 11:00 AM  78.4°F  68°F  9 mph NW  8 mph  14 mph  0.00"  20%  39%  33°F  42°F  29.96"
Fri 10:00 AM  75.9°F  66°F  9 mph NW  8 mph  12 mph  0.00"  23%  42%  33°F  42°F  29.97"
Fri 09:00 AM  69.1°F  63°F  8 mph NW  7 mph  11 mph  0.00"  43%  49%  45°F  43°F  29.97"

  1. Current weather data. No green row appears if the current weather data is also the high or low for the current day.
  2. High temperature for the current day.
  3. Low temperature for the current day.

The Anza, California weather pages are a service of WeatherCurrents. The Anza Valley is southwestern Riverside County, east of Temecula and Aguanga, south of Mount San Jacinto and west of Mount Santa Rosa.
Copyright ©Sat May 02 20:45:55 PDT 2026  WeatherCurrents. All rights reserved. - Submit questions and comments - Privacy Policy

This page automatically refreshes every 10 minutes.